Terminal Aerodrome Forecast
Issued by NWS Louisville, KY

Home | Current Version | Previous Version | Text Only | Print | Product List | Glossary On
Versions: 1 2 3 4 5 6 7 8 9 10 11 12 13
760
FTUS43 KLMK 101120
TAFSDF
TAF
KSDF 101120Z 1012/1118 23008KT P6SM BKN110
     FM101600 22013G22KT P6SM BKN200
     FM102300 24008KT P6SM SCT250
     FM110600 25005KT P6SM SCT250=

USA.gov is the U.S. government's official web portal to all federal, state and local government web resources and services.